Airfield :
LOGIN :

Register | Disclaimer

   EN    FR    IT 

 










Legend :    VFR   Marginal VFR   IFR   Intensive IFR   Very Intensive IFR
Visi :
Ceiling :
>= 8 km
>= 3000ft
5 to 8 km
1000 to 3000 ft
1500m to 5 km
500 to 1000 ft
800 to 1500m
200 to 500 ft
< 800m
< 200 ft
Symbols :   Thunderstorms  Fog  Heavy snow  Heavy precipitations  Wind > 20 kt
SIGMETs :     Misc.  Thunderstorms  Icing  Turbulence  Mountain Waves  Volcanic Ashes






- Airport Elevation : 20 ft


EBFN - Koksijde

CURRENT METAR :
  • 102325Z AUTO 20018G31KT 8000 OVC012/// 08/06 Q1009 GRN

EXPIRED METARs :
  • 102255Z AUTO 21020G31KT 9999 OVC014/// 08/06 Q1009 GRN
  • 102225Z AUTO 20018KT 9999 OVC018/// 08/06 Q1009 WHT
  • 102155Z AUTO 20021KT 9999 BKN020/// BKN053/// BKN076/// 08/05 Q1009 WHT
  • 102125Z AUTO 19019KT 9999 OVC023/// 08/05 Q1009 WHT
  • 102055Z AUTO 19020KT 9999 OVC020/// 08/05 Q1010 WHT

TAF TAF EBFN
Valid from the 10 at 19:00 until the 11 at 07:00 UTC


101541Z 1019/1107 19024G44KT 9999 BKN020 BKN150
PROB40
TEMPO 1019/1101 7000 -RA SCT015 BKN018
BECMG 1023/1101 25010KT 9999 SCT018TCU BKN190
TEMPO 1023/1103 4000 -SHRA RA SCT015TCU
BECMG 1103/1105 NSC



MET'MAP, your aeronautical weather chart ! - Copyright ORBIFLY December 2007 - Disclaimer

ORBIFLY MET'MAP TEAM :

Programming & Development : Alexandra Zaïnal
Concept & original design : Baudouin d'Aumeries
Assistance for programming : Marc-Olivier Méhu
Technical & hardware support : Manuel Goepfert

Contact : metmap@orbifly.com




SOURCES & CREDITS :

   NOAA